Time;durP1;ratioP1;P1;durP2;ratioP2;P2;SDS_P1;SDS_P2;PMS_P1;PMS_P2;Temp;Humidity;BMP_temperature;BMP_pressure;BME280_temperature;BME280_humidity;BME280_pressure;Samples;Min_cycle;Max_cycle;Signal;HPM_P1;HPM_P2
2022/09/17 00:00:59;;;;;;;19.17;13.25;;;7.30;99.90;;;;;;5050223;28;20117;-71
2022/09/17 00:03:27;;;;;;;19.77;12.48;;;7.40;99.90;;;;;;5050250;28;20025;-71
2022/09/17 00:06:11;;;;;;;16.95;11.82;;;7.30;99.90;;;;;;5049214;28;20045;-72
2022/09/17 00:08:39;;;;;;;17.05;11.80;;;7.30;99.90;;;;;;5050288;28;20373;-71
2022/09/17 00:11:16;;;;;;;22.00;13.85;;;7.30;99.90;;;;;;5050250;28;20021;-72
2022/09/17 00:13:43;;;;;;;23.73;16.08;;;7.30;99.90;;;;;;5050191;28;20055;-71
2022/09/17 00:16:08;;;;;;;23.55;15.90;;;7.30;99.90;;;;;;5050197;28;20033;-71
2022/09/17 00:18:35;;;;;;;26.42;17.08;;;7.30;99.90;;;;;;5050045;28;20025;-71
2022/09/17 00:21:02;;;;;;;59.17;38.60;;;7.30;99.90;;;;;;5048959;28;20508;-72
2022/09/17 00:23:28;;;;;;;25.70;19.75;;;7.30;99.90;;;;;;5048738;28;20390;-72
2022/09/17 00:26:22;;;;;;;15.60;12.70;;;7.40;99.90;;;;;;5050132;28;20025;-71
2022/09/17 00:29:35;;;;;;;15.20;10.45;;;7.40;99.90;;;;;;5057971;28;20082;-72
2022/09/17 00:33:02;;;;;;;15.02;9.50;;;7.40;99.90;;;;;;5030805;28;20032;-71
2022/09/17 00:35:28;;;;;;;16.15;10.38;;;7.40;99.90;;;;;;5029630;28;20041;-72
2022/09/17 00:37:54;;;;;;;14.15;9.73;;;7.40;99.90;;;;;;5030262;28;20116;-71
2022/09/17 00:40:20;;;;;;;16.77;9.75;;;7.40;99.90;;;;;;5030043;28;20064;-71
2022/09/17 00:42:45;;;;;;;15.30;10.52;;;7.40;99.90;;;;;;5029900;28;20025;-71
2022/09/17 00:45:12;;;;;;;13.57;9.30;;;7.40;99.90;;;;;;5045216;28;20025;-72
2022/09/17 00:47:39;;;;;;;13.20;9.13;;;7.40;99.90;;;;;;5049903;28;20116;-72
2022/09/17 00:50:07;;;;;;;15.50;9.77;;;7.30;99.90;;;;;;5049828;28;20073;-72
2022/09/17 00:52:44;;;;;;;21.35;13.00;;;7.30;99.90;;;;;;5053169;28;20060;-72
2022/09/17 00:55:17;;;;;;;18.27;10.63;;;7.20;99.90;;;;;;5053374;28;20060;-71
2022/09/17 00:57:44;;;;;;;18.52;11.18;;;7.20;99.90;;;;;;5052152;28;20073;-71
2022/09/17 01:00:13;;;;;;;15.75;10.85;;;7.20;99.90;;;;;;5053130;28;20052;-71
2022/09/17 01:02:39;;;;;;;16.35;11.02;;;7.10;99.90;;;;;;5053137;28;20066;-72
2022/09/17 01:05:06;;;;;;;15.02;10.30;;;7.10;99.90;;;;;;5051846;28;20486;-72
2022/09/17 01:07:43;;;;;;;14.00;9.63;;;7.00;99.90;;;;;;5053031;28;20033;-71
2022/09/17 01:10:34;;;;;;;15.38;10.15;;;7.10;99.90;;;;;;5053088;28;20017;-72
2022/09/17 01:13:05;;;;;;;14.60;8.95;;;7.00;99.90;;;;;;5052875;28;20546;-72
2022/09/17 01:16:00;;;;;;;13.18;9.25;;;7.00;99.90;;;;;;5053085;28;20033;-72
2022/09/17 01:18:36;;;;;;;13.10;9.55;;;7.00;99.90;;;;;;5051653;28;20037;-71
2022/09/17 01:21:35;;;;;;;15.00;10.23;;;6.90;99.90;;;;;;5053105;28;20024;-71
2022/09/17 01:24:01;;;;;;;15.98;9.52;;;6.90;99.90;;;;;;5052720;28;20049;-71
2022/09/17 01:26:54;;;;;;;16.77;10.48;;;6.80;99.90;;;;;;5051520;28;20517;-72
2022/09/17 01:29:47;;;;;;;17.38;10.07;;;6.80;99.90;;;;;;5048250;28;20021;-71
2022/09/17 01:32:36;;;;;;;15.02;10.32;;;6.70;99.90;;;;;;5031598;28;20471;-71
2022/09/17 01:35:28;;;;;;;14.00;9.93;;;6.70;99.90;;;;;;5032820;28;20021;-71
2022/09/17 01:38:18;;;;;;;20.02;11.07;;;6.70;99.90;;;;;;5032922;28;20041;-71
2022/09/17 01:41:05;;;;;;;14.57;10.82;;;6.60;99.90;;;;;;5032740;28;20049;-71
2022/09/17 01:43:57;;;;;;;18.85;11.65;;;6.60;99.90;;;;;;5034112;28;20368;-72
2022/09/17 01:46:28;;;;;;;20.67;12.02;;;6.60;99.90;;;;;;5051360;28;20014;-72
2022/09/17 01:48:59;;;;;;;19.40;11.55;;;6.60;99.90;;;;;;5052543;28;20032;-71
2022/09/17 01:51:28;;;;;;;20.73;13.73;;;6.50;99.90;;;;;;5052493;28;20025;-71
2022/09/17 01:54:20;;;;;;;25.08;14.38;;;6.40;99.90;;;;;;5052228;28;20013;-72
2022/09/17 01:56:51;;;;;;;24.98;16.00;;;6.40;99.90;;;;;;5052188;28;20050;-72
2022/09/17 01:59:30;;;;;;;21.88;13.77;;;6.40;99.90;;;;;;5052184;28;20228;-71
2022/09/17 02:02:04;;;;;;;23.58;14.55;;;6.30;99.90;;;;;;5051907;28;20378;-72
2022/09/17 02:04:37;;;;;;;25.80;14.93;;;6.30;99.90;;;;;;5050625;28;20028;-71
2022/09/17 02:07:08;;;;;;;21.08;12.00;;;6.30;99.90;;;;;;5052342;28;20053;-72
2022/09/17 02:09:45;;;;;;;15.40;10.73;;;6.20;99.90;;;;;;5052124;28;20472;-72
2022/09/17 02:12:17;;;;;;;14.38;9.90;;;6.10;99.90;;;;;;5052157;28;20029;-71
2022/09/17 02:14:52;;;;;;;12.57;8.37;;;6.10;99.90;;;;;;5052094;28;20021;-71
2022/09/17 02:17:28;;;;;;;13.15;9.10;;;6.10;99.90;;;;;;5050719;27;20310;-71
2022/09/17 02:19:55;;;;;;;14.77;9.65;;;6.00;99.90;;;;;;5052114;28;20029;-71
2022/09/17 02:22:35;;;;;;;16.27;11.13;;;6.00;99.90;;;;;;5052098;28;20400;-73
2022/09/17 02:25:13;;;;;;;17.50;10.80;;;5.90;99.90;;;;;;5051955;28;20390;-72
2022/09/17 02:27:49;;;;;;;16.13;10.48;;;5.90;99.90;;;;;;5052009;28;20033;-72
2022/09/17 02:30:15;;;;;;;15.63;10.23;;;5.90;99.90;;;;;;5040678;28;20071;-72
2022/09/17 02:32:41;;;;;;;15.80;9.88;;;5.90;99.90;;;;;;5032057;28;20018;-72
2022/09/17 02:35:08;;;;;;;16.55;10.50;;;5.90;99.90;;;;;;5030479;28;20034;-72
2022/09/17 02:37:34;;;;;;;14.27;9.88;;;5.90;99.90;;;;;;5031811;28;20402;-72
2022/09/17 02:39:59;;;;;;;18.40;11.30;;;5.90;99.90;;;;;;5031674;28;20021;-71
2022/09/17 02:42:43;;;;;;;15.60;10.85;;;5.90;99.90;;;;;;5031828;28;20066;-72
2022/09/17 02:45:33;;;;;;;16.73;11.63;;;5.90;99.90;;;;;;5047068;28;20036;-71
2022/09/17 02:48:04;;;;;;;14.95;10.82;;;5.80;99.90;;;;;;5051680;28;20112;-71
2022/09/17 02:50:51;;;;;;;15.70;10.63;;;5.80;99.90;;;;;;5051522;28;20088;-72
2022/09/17 02:53:39;;;;;;;20.08;11.40;;;5.80;99.90;;;;;;5051603;28;20351;-71
2022/09/17 02:56:45;;;;;;;19.92;12.43;;;5.90;99.90;;;;;;5050608;28;20048;-71
2022/09/17 02:59:13;;;;;;;24.77;13.80;;;6.00;99.90;;;;;;5051248;28;20394;-72
2022/09/17 03:01:43;;;;;;;24.95;14.32;;;6.00;99.90;;;;;;5051419;28;20364;-71
2022/09/17 03:04:11;;;;;;;31.80;15.88;;;6.10;99.90;;;;;;5051321;28;20017;-72
2022/09/17 03:06:38;;;;;;;25.63;14.90;;;6.10;99.90;;;;;;5051274;28;20105;-72
2022/09/17 03:09:04;;;;;;;56.83;20.50;;;6.20;99.90;;;;;;5051229;28;20086;-71
2022/09/17 03:11:30;;;;;;;56.70;20.48;;;6.30;99.90;;;;;;5051181;28;20021;-72
2022/09/17 03:13:56;;;;;;;44.63;21.38;;;6.30;99.90;;;;;;5051041;28;20048;-72
2022/09/17 03:16:22;;;;;;;39.83;20.40;;;6.40;99.90;;;;;;5051027;28;20029;-71
2022/09/17 03:18:47;;;;;;;37.47;17.92;;;6.50;99.90;;;;;;5051201;27;20027;-71
2022/09/17 03:21:13;;;;;;;39.95;20.42;;;6.50;99.90;;;;;;5051072;28;20108;-72
2022/09/17 03:23:38;;;;;;;38.40;19.23;;;6.50;99.90;;;;;;5049669;28;20025;-71
2022/09/17 03:26:04;;;;;;;45.17;19.27;;;6.60;99.90;;;;;;5049791;28;20363;-71
2022/09/17 03:28:30;;;;;;;60.95;22.25;;;6.60;99.90;;;;;;5050945;28;20498;-71
2022/09/17 03:30:55;;;;;;;32.17;16.98;;;6.70;99.90;;;;;;5033983;28;20021;-72
2022/09/17 03:33:21;;;;;;;21.73;11.85;;;6.70;99.90;;;;;;5029690;28;20026;-71
2022/09/17 03:35:47;;;;;;;25.55;12.95;;;6.80;99.90;;;;;;5030814;28;20036;-72
2022/09/17 03:38:13;;;;;;;30.42;13.05;;;6.70;99.90;;;;;;5031129;28;20026;-71
2022/09/17 03:40:39;;;;;;;28.95;13.98;;;6.70;99.90;;;;;;5030839;28;20379;-71
2022/09/17 03:43:05;;;;;;;39.60;17.65;;;6.70;99.90;;;;;;5030873;28;20026;-72
2022/09/17 03:45:31;;;;;;;30.92;14.63;;;6.70;99.90;;;;;;5049506;28;20074;-72
2022/09/17 03:47:57;;;;;;;36.53;17.17;;;6.70;99.90;;;;;;5050761;28;20028;-71
2022/09/17 03:50:22;;;;;;;29.05;14.48;;;6.70;99.90;;;;;;5049255;28;20025;-71
2022/09/17 03:52:48;;;;;;;30.42;14.90;;;6.70;99.90;;;;;;5050550;28;20471;-72
2022/09/17 03:55:15;;;;;;;26.38;13.95;;;6.80;99.90;;;;;;5050463;28;20025;-71
2022/09/17 03:57:40;;;;;;;23.77;13.23;;;6.80;99.90;;;;;;5050552;28;20025;-71
2022/09/17 04:00:07;;;;;;;26.08;14.13;;;6.90;99.90;;;;;;5050232;28;20053;-72
2022/09/17 04:02:33;;;;;;;29.50;13.48;;;6.90;99.90;;;;;;5050586;28;20021;-71
2022/09/17 04:04:59;;;;;;;22.88;12.55;;;6.90;99.90;;;;;;5050346;28;20070;-71
2022/09/17 04:07:24;;;;;;;24.85;12.77;;;6.90;99.90;;;;;;5050371;28;20470;-72
2022/09/17 04:09:50;;;;;;;27.35;13.55;;;6.90;99.90;;;;;;5050422;28;20060;-71
2022/09/17 04:12:15;;;;;;;29.67;14.95;;;6.90;99.90;;;;;;5049152;28;20025;-72
2022/09/17 04:14:41;;;;;;;26.77;15.85;;;7.00;99.90;;;;;;5050259;28;20104;-71
2022/09/17 04:17:07;;;;;;;50.05;21.10;;;7.10;99.90;;;;;;5050202;28;20068;-71
2022/09/17 04:19:32;;;;;;;66.22;22.63;;;7.10;99.90;;;;;;5050115;28;20017;-71
2022/09/17 04:21:59;;;;;;;134.15;31.52;;;7.20;99.90;;;;;;5050151;28;20043;-72
2022/09/17 04:24:24;;;;;;;56.88;23.63;;;7.20;99.90;;;;;;5050217;28;20470;-71
2022/09/17 04:26:50;;;;;;;56.05;23.63;;;7.30;99.90;;;;;;5052548;28;20101;-71
2022/09/17 04:29:15;;;;;;;45.58;22.08;;;7.30;99.90;;;;;;5050134;28;20048;-72
2022/09/17 04:31:41;;;;;;;46.03;20.45;;;7.40;99.90;;;;;;5033884;28;20026;-72
2022/09/17 04:34:07;;;;;;;53.65;24.30;;;7.50;99.90;;;;;;5033788;28;20040;-72
2022/09/17 04:36:32;;;;;;;53.47;22.83;;;7.50;99.90;;;;;;5033664;28;20030;-72
2022/09/17 04:38:58;;;;;;;50.72;22.08;;;7.50;99.90;;;;;;5033720;28;20101;-71
2022/09/17 04:41:23;;;;;;;116.10;28.20;;;7.60;99.90;;;;;;5033517;28;20026;-71
2022/09/17 04:43:49;;;;;;;58.50;22.98;;;7.60;99.90;;;;;;5037485;28;20047;-71
2022/09/17 04:46:15;;;;;;;74.35;24.88;;;7.60;99.90;;;;;;5053476;28;20100;-72
2022/09/17 04:48:41;;;;;;;63.40;23.05;;;7.70;99.90;;;;;;5052096;28;20025;-71
2022/09/17 04:51:06;;;;;;;149.13;28.48;;;7.70;99.90;;;;;;5053327;28;20025;-73
2022/09/17 04:53:32;;;;;;;91.65;26.13;;;7.70;99.90;;;;;;5052080;28;20039;-71
2022/09/17 04:55:57;;;;;;;129.90;28.17;;;7.60;99.90;;;;;;5053161;28;20040;-71
2022/09/17 04:58:23;;;;;;;97.93;25.67;;;7.60;99.90;;;;;;5053244;28;20033;-72
2022/09/17 05:00:49;;;;;;;151.07;28.90;;;7.60;99.90;;;;;;5053154;28;20056;-71
2022/09/17 05:03:15;;;;;;;190.65;30.92;;;7.70;99.90;;;;;;5053054;28;20522;-71
2022/09/17 05:05:40;;;;;;;138.98;28.67;;;7.60;99.90;;;;;;5053165;28;20027;-71
2022/09/17 05:08:07;;;;;;;142.48;28.27;;;7.60;99.90;;;;;;5051624;28;20025;-71
2022/09/17 05:10:33;;;;;;;91.25;25.88;;;7.70;99.90;;;;;;5051734;28;20489;-71
2022/09/17 05:12:59;;;;;;;608.05;226.57;;;7.70;99.90;;;;;;5052988;28;20025;-72
2022/09/17 05:15:26;;;;;;;183.35;49.03;;;7.70;99.90;;;;;;5053012;28;20027;-70
2022/09/17 05:17:52;;;;;;;104.05;35.50;;;7.70;99.90;;;;;;5052954;28;20024;-71
2022/09/17 05:20:18;;;;;;;140.07;44.97;;;7.70;99.90;;;;;;5052699;28;20104;-71
2022/09/17 05:22:52;;;;;;;251.93;62.10;;;7.80;99.90;;;;;;5052499;28;20028;-72
2022/09/17 05:25:23;;;;;;;102.45;30.70;;;7.80;99.90;;;;;;5052714;28;20017;-71
2022/09/17 05:27:50;;;;;;;119.40;29.67;;;7.90;99.90;;;;;;5051349;28;20021;-71
2022/09/17 05:30:16;;;;;;;78.82;25.58;;;7.90;99.90;;;;;;5039087;28;20025;-71
2022/09/17 05:32:41;;;;;;;67.18;22.48;;;7.80;99.90;;;;;;5031283;28;20022;-72
2022/09/17 05:35:08;;;;;;;61.80;20.33;;;7.90;99.90;;;;;;5032624;28;20025;-71
2022/09/17 05:37:35;;;;;;;62.25;23.38;;;7.80;99.90;;;;;;5042305;28;20059;-72
2022/09/17 05:40:02;;;;;;;51.05;21.75;;;7.80;99.90;;;;;;5047907;28;20081;-71
2022/09/17 05:42:28;;;;;;;48.42;23.20;;;7.80;99.90;;;;;;5041957;28;20028;-71
2022/09/17 05:44:53;;;;;;;71.75;28.52;;;7.90;99.90;;;;;;5043391;28;20483;-71
2022/09/17 05:47:19;;;;;;;66.78;25.90;;;7.90;99.90;;;;;;5043250;28;20060;-72
2022/09/17 05:49:44;;;;;;;58.35;25.75;;;8.00;99.90;;;;;;5052199;28;20032;-71
2022/09/17 05:52:10;;;;;;;58.85;24.23;;;7.90;99.90;;;;;;5052125;28;20029;-72
2022/09/17 05:54:36;;;;;;;47.13;25.52;;;7.90;99.90;;;;;;5052130;28;20036;-71
2022/09/17 05:57:01;;;;;;;53.47;28.63;;;8.00;99.90;;;;;;5047199;28;20033;-73
2022/09/17 05:59:27;;;;;;;54.45;27.40;;;8.10;99.90;;;;;;5034575;28;20053;-71
2022/09/17 06:01:52;;;;;;;55.38;29.80;;;8.10;99.90;;;;;;5030904;28;20104;-71
2022/09/17 06:04:18;;;;;;;57.90;30.15;;;8.20;99.90;;;;;;5030812;28;20121;-71
2022/09/17 06:06:44;;;;;;;60.70;32.60;;;8.30;99.90;;;;;;5032138;28;20032;-72
2022/09/17 06:09:09;;;;;;;61.22;33.13;;;8.40;99.90;;;;;;5031914;28;20033;-71
2022/09/17 06:11:36;;;;;;;54.03;29.20;;;8.50;99.90;;;;;;5040530;28;20526;-71
2022/09/17 06:14:03;;;;;;;48.92;28.00;;;8.60;99.90;;;;;;5048793;28;20056;-71
2022/09/17 06:16:28;;;;;;;50.35;30.00;;;8.70;99.90;;;;;;5051813;28;20037;-71
2022/09/17 06:18:54;;;;;;;48.05;28.30;;;8.70;99.90;;;;;;5048545;28;20079;-71
2022/09/17 06:21:21;;;;;;;56.75;31.50;;;8.80;99.90;;;;;;5042145;28;20029;-71
2022/09/17 06:23:47;;;;;;;44.50;26.40;;;8.90;99.90;;;;;;5031790;28;20467;-71
2022/09/17 06:26:13;;;;;;;43.65;28.15;;;9.00;99.90;;;;;;5031754;28;20017;-71
2022/09/17 06:28:39;;;;;;;45.70;28.80;;;9.10;99.90;;;;;;5031614;28;20077;-71
2022/09/17 06:31:07;;;;;;;48.20;30.25;;;9.10;99.90;;;;;;5049585;28;20081;-71
2022/09/17 06:33:33;;;;;;;32.75;19.77;;;9.30;99.90;;;;;;5032409;28;20056;-71
2022/09/17 06:36:07;;;;;;;31.88;19.67;;;9.40;99.90;;;;;;5030234;28;20128;-72
2022/09/17 06:38:34;;;;;;;30.83;19.58;;;9.40;99.90;;;;;;5031311;28;20029;-71
2022/09/17 06:41:00;;;;;;;29.20;19.25;;;9.50;99.90;;;;;;5029731;28;20498;-71
2022/09/17 06:43:26;;;;;;;27.73;18.48;;;9.50;99.90;;;;;;5031737;28;20036;-71
2022/09/17 06:45:56;;;;;;;25.35;16.60;;;9.50;99.90;;;;;;5049334;28;20029;-71
2022/09/17 06:48:23;;;;;;;28.55;16.52;;;9.60;99.90;;;;;;5048753;28;20025;-71
2022/09/17 06:50:49;;;;;;;25.13;15.50;;;9.50;99.90;;;;;;5049192;28;20108;-72
2022/09/17 06:53:15;;;;;;;25.55;16.17;;;9.50;99.90;;;;;;5049073;28;20028;-72
2022/09/17 06:55:41;;;;;;;25.25;17.38;;;9.70;99.90;;;;;;5049059;28;20029;-72
2022/09/17 06:58:07;;;;;;;24.73;16.50;;;9.70;99.90;;;;;;5047644;28;20108;-72
2022/09/17 07:00:33;;;;;;;31.17;17.00;;;9.80;99.90;;;;;;5050927;28;20120;-74
2022/09/17 07:02:59;;;;;;;27.95;19.25;;;9.80;99.90;;;;;;5047921;28;20021;-74
2022/09/17 07:05:26;;;;;;;35.78;18.60;;;10.00;99.90;;;;;;5051198;28;20079;-71
2022/09/17 07:07:52;;;;;;;27.95;17.55;;;10.00;99.90;;;;;;5049956;28;20025;-73
2022/09/17 07:10:17;;;;;;;29.00;18.02;;;10.10;99.90;;;;;;5040987;28;20037;-74
2022/09/17 07:12:43;;;;;;;29.23;19.25;;;10.10;99.90;;;;;;5049656;28;20029;-72
2022/09/17 07:15:14;;;;;;;29.13;19.08;;;10.30;99.90;;;;;;5049727;27;20100;-71
2022/09/17 07:17:41;;;;;;;34.78;21.85;;;10.30;99.90;;;;;;5047998;28;20458;-74
2022/09/17 07:20:08;;;;;;;32.38;21.08;;;10.40;99.90;;;;;;5049672;27;20056;-73
2022/09/17 07:22:34;;;;;;;28.98;16.73;;;10.40;99.90;;;;;;5048405;27;20018;-71
2022/09/17 07:24:59;;;;;;;24.65;16.27;;;10.30;99.90;;;;;;5048775;28;20070;-73
2022/09/17 07:27:29;;;;;;;22.17;15.30;;;10.40;99.90;;;;;;5043833;28;20037;-73
2022/09/17 07:29:55;;;;;;;33.10;17.40;;;10.50;99.90;;;;;;5038250;28;20025;-73
2022/09/17 07:32:21;;;;;;;21.20;13.70;;;10.60;99.90;;;;;;5048334;28;20108;-73
2022/09/17 07:34:48;;;;;;;23.15;14.48;;;10.60;99.90;;;;;;5049593;28;20062;-74
2022/09/17 07:37:14;;;;;;;22.45;13.50;;;10.70;99.90;;;;;;5049829;28;20093;-73
2022/09/17 07:39:40;;;;;;;24.00;13.65;;;10.90;99.90;;;;;;5048841;28;20032;-72
2022/09/17 07:42:06;;;;;;;24.15;15.00;;;11.20;99.90;;;;;;5030576;28;20037;-73
2022/09/17 07:44:31;;;;;;;23.38;13.18;;;11.30;99.90;;;;;;5030284;28;20470;-73
2022/09/17 07:46:57;;;;;;;17.90;11.43;;;11.30;99.90;;;;;;5030458;28;20021;-74
2022/09/17 07:49:22;;;;;;;16.35;10.07;;;11.40;99.90;;;;;;5028947;28;20064;-73
2022/09/17 07:51:48;;;;;;;19.58;10.55;;;11.30;99.90;;;;;;5040394;28;20093;-73
2022/09/17 07:54:14;;;;;;;14.90;9.57;;;11.30;99.90;;;;;;5050017;28;20171;-73
2022/09/17 07:56:39;;;;;;;17.35;9.65;;;11.30;99.90;;;;;;5050001;28;20033;-73
2022/09/17 07:59:05;;;;;;;11.07;7.35;;;11.40;99.90;;;;;;5049900;28;20104;-73
2022/09/17 08:01:35;;;;;;;8.45;6.78;;;11.50;99.90;;;;;;5049249;28;20021;-73
2022/09/17 08:04:01;;;;;;;9.27;7.03;;;11.70;99.90;;;;;;5050173;28;20017;-73
2022/09/17 08:06:27;;;;;;;6.97;5.35;;;11.80;99.90;;;;;;5050043;28;20021;-72
2022/09/17 08:08:53;;;;;;;7.00;4.50;;;11.80;99.90;;;;;;5048540;28;20125;-73
2022/09/17 08:11:21;;;;;;;7.22;5.10;;;12.00;99.90;;;;;;5049930;28;20470;-73
2022/09/17 08:13:49;;;;;;;9.77;6.65;;;12.10;99.90;;;;;;5049946;28;20049;-72
2022/09/17 08:16:15;;;;;;;9.63;5.25;;;12.20;99.90;;;;;;5049865;28;20386;-73
2022/09/17 08:18:42;;;;;;;8.95;5.63;;;12.20;99.90;;;;;;5049705;28;20024;-70
2022/09/17 08:21:10;;;;;;;8.27;5.28;;;12.20;99.90;;;;;;5049723;28;20009;-70
2022/09/17 08:23:38;;;;;;;8.63;4.45;;;12.30;99.90;;;;;;5049879;28;20449;-70
2022/09/17 10:30:56;;;;;;;4.45;4.05;;;12.50;99.90;;;;;;5012812;28;20460;-70
2022/09/17 10:33:27;;;;;;;5.65;4.10;;;12.60;99.90;;;;;;5052008;28;20359;-70
2022/09/17 10:35:58;;;;;;;5.85;4.63;;;12.80;99.90;;;;;;5050713;28;20021;-70
2022/09/17 10:38:34;;;;;;;6.43;3.83;;;12.90;99.90;;;;;;5050873;28;20029;-71
2022/09/17 10:41:18;;;;;;;9.25;3.65;;;12.70;99.90;;;;;;5051867;28;20067;-71
2022/09/17 10:43:44;;;;;;;5.85;4.38;;;12.60;99.90;;;;;;5051845;28;20530;-70
2022/09/17 10:46:25;;;;;;;11.05;3.97;;;12.50;99.90;;;;;;5050436;28;20415;-71
2022/09/17 10:49:04;;;;;;;4.35;3.92;;;12.50;99.90;;;;;;5043081;28;20386;-70
2022/09/17 10:51:30;;;;;;;5.55;4.15;;;12.40;99.90;;;;;;5031567;28;20095;-70
2022/09/17 10:54:11;;;;;;;5.25;4.10;;;12.40;99.90;;;;;;5031261;28;20036;-71
2022/09/17 10:56:41;;;;;;;4.95;3.90;;;12.30;99.90;;;;;;5049438;28;20044;-70
2022/09/17 10:59:21;;;;;;;4.82;3.90;;;12.40;99.90;;;;;;4944980;27;20194;-71
2022/09/17 11:02:25;;;;;;;5.25;4.40;;;12.60;99.90;;;;;;5088187;28;20016;-71
2022/09/17 11:05:35;;;;;;;9.77;4.97;;;12.70;99.90;;;;;;5092986;28;20478;-71
2022/09/17 11:08:13;;;;;;;8.98;4.15;;;12.70;99.90;;;;;;5092571;28;20032;-71
2022/09/17 11:10:57;;;;;;;6.00;4.63;;;12.70;99.90;;;;;;5103176;28;20028;-71
2022/09/17 11:13:50;;;;;;;4.57;3.95;;;12.70;99.90;;;;;;5093215;28;20020;-70
2022/09/17 11:16:34;;;;;;;4.70;4.30;;;12.70;99.90;;;;;;5092905;28;20039;-71
2022/09/17 11:19:25;;;;;;;5.40;4.60;;;12.70;99.90;;;;;;5092970;28;20047;-70
2022/09/17 11:22:00;;;;;;;10.40;4.45;;;12.60;99.90;;;;;;5093062;28;20482;-71
2022/09/17 11:24:45;;;;;;;27.67;18.00;;;12.50;99.90;;;;;;5079142;28;20093;-70
2022/09/17 11:27:16;;;;;;;41.42;24.27;;;12.40;99.90;;;;;;5093001;28;20036;-71
2022/09/17 11:30:07;;;;;;;46.47;28.98;;;12.30;99.90;;;;;;5081258;28;20109;-70
2022/09/17 11:32:45;;;;;;;41.50;30.70;;;12.20;99.90;;;;;;5092846;28;20055;-70
2022/09/17 11:35:23;;;;;;;169.88;117.10;;;12.10;99.90;;;;;;5092574;28;20055;-70
2022/09/17 11:38:00;;;;;;;69.38;35.47;;;12.10;99.90;;;;;;5092012;28;20036;-71
2022/09/17 11:40:42;;;;;;;68.38;23.10;;;12.20;99.90;;;;;;5092816;28;20562;-70
2022/09/17 11:43:16;;;;;;;52.33;19.33;;;12.30;99.90;;;;;;5092442;28;20047;-70
2022/09/17 11:46:19;;;;;;;40.25;14.57;;;12.20;99.90;;;;;;5092287;28;20050;-70
2022/09/17 11:48:53;;;;;;;11.90;8.03;;;12.30;99.90;;;;;;5058076;28;20108;-70
2022/09/17 11:51:44;;;;;;;71.93;40.35;;;12.20;99.90;;;;;;5092776;28;20016;-71
2022/09/17 11:54:24;;;;;;;57.35;23.30;;;12.20;99.90;;;;;;5091880;28;20489;-71
2022/09/17 11:56:57;;;;;;;38.00;12.43;;;12.20;99.90;;;;;;5078155;28;20070;-70
2022/09/17 11:59:37;;;;;;;19.45;9.57;;;12.30;99.90;;;;;;5093689;28;20051;-70
2022/09/17 12:02:20;;;;;;;13.00;7.60;;;12.20;99.90;;;;;;5096206;28;20017;-70
2022/09/17 12:05:13;;;;;;;45.40;21.45;;;12.20;99.90;;;;;;5090903;28;20040;-70
2022/09/17 12:08:01;;;;;;;27.90;11.63;;;12.30;99.90;;;;;;5091626;28;20103;-70
2022/09/17 12:10:42;;;;;;;21.05;10.02;;;12.50;99.90;;;;;;5090842;28;20392;-70
2022/09/17 12:13:39;;;;;;;46.30;23.92;;;12.60;99.90;;;;;;5079728;28;20028;-70
2022/09/17 12:16:21;;;;;;;158.80;93.53;;;12.50;99.90;;;;;;5090721;28;20052;-71
2022/09/17 12:19:03;;;;;;;62.20;23.83;;;12.60;99.90;;;;;;5092039;28;20169;-70
2022/09/17 12:21:43;;;;;;;23.25;9.52;;;12.80;99.90;;;;;;5092525;28;20027;-70
2022/09/17 12:24:23;;;;;;;33.72;16.20;;;12.90;99.90;;;;;;5090344;28;20039;-70
2022/09/17 12:27:21;;;;;;;42.53;27.20;;;12.90;99.90;;;;;;5087688;28;20107;-71
2022/09/17 12:29:51;;;;;;;28.17;10.63;;;13.00;99.90;;;;;;5090084;28;20032;-71
2022/09/17 12:32:20;;;;;;;33.63;11.63;;;13.00;99.90;;;;;;5092031;28;20063;-71
2022/09/17 12:35:09;;;;;;;16.80;8.48;;;13.10;99.90;;;;;;5091476;28;20032;-71
2022/09/17 12:38:04;;;;;;;10.55;6.65;;;13.00;99.90;;;;;;5090072;28;20562;-71
2022/09/17 12:40:34;;;;;;;9.48;7.10;;;13.00;99.90;;;;;;5091612;28;20482;-72
2022/09/17 12:43:08;;;;;;;10.10;6.35;;;13.00;99.90;;;;;;5091605;28;20103;-72
2022/09/17 12:45:44;;;;;;;8.93;6.18;;;13.10;99.90;;;;;;5091316;28;20032;-71
2022/09/17 12:48:15;;;;;;;7.20;6.15;;;13.00;99.90;;;;;;5095218;28;20016;-72
2022/09/17 12:50:44;;;;;;;9.43;6.20;;;13.00;99.90;;;;;;5094297;28;20028;-71
2022/09/17 12:53:33;;;;;;;7.00;5.82;;;12.80;99.90;;;;;;5095460;28;20077;-71
2022/09/17 12:56:30;;;;;;;18.23;12.85;;;12.70;99.90;;;;;;5095718;28;20101;-71
2022/09/17 12:59:06;;;;;;;15.73;8.70;;;12.60;99.90;;;;;;5092457;28;20048;-72
2022/09/17 13:01:49;;;;;;;59.55;34.13;;;12.40;99.90;;;;;;5091781;28;20024;-71
2022/09/17 13:04:24;;;;;;;137.15;55.75;;;12.50;99.90;;;;;;5091550;28;20020;-71
2022/09/17 13:07:26;;;;;;;86.40;32.03;;;12.70;99.90;;;;;;5095114;28;20385;-71
2022/09/17 13:09:57;;;;;;;158.37;60.33;;;12.70;99.90;;;;;;5093506;28;20089;-71
2022/09/17 13:12:38;;;;;;;67.50;30.45;;;12.70;99.90;;;;;;5095701;28;20063;-70
2022/09/17 13:15:48;;;;;;;39.42;24.02;;;12.90;99.90;;;;;;5093825;28;20497;-72
2022/09/17 13:18:26;;;;;;;13.02;9.70;;;13.00;99.90;;;;;;5089781;28;20032;-71
2022/09/17 13:21:05;;;;;;;9.02;6.15;;;13.00;99.90;;;;;;5094489;28;20042;-72
2022/09/17 13:23:43;;;;;;;13.13;9.70;;;13.00;99.90;;;;;;5094186;28;20056;-71
2022/09/17 13:26:12;;;;;;;14.70;11.05;;;13.00;99.90;;;;;;5095052;28;20047;-71
2022/09/17 13:28:43;;;;;;;11.77;7.88;;;13.00;99.90;;;;;;5094441;28;20024;-71
2022/09/17 13:31:10;;;;;;;11.85;9.13;;;13.10;99.90;;;;;;5094734;28;20074;-72
2022/09/17 13:34:17;;;;;;;76.15;39.08;;;13.20;99.90;;;;;;5094568;28;20425;-71
2022/09/17 13:36:55;;;;;;;11.70;8.05;;;13.20;99.90;;;;;;5097784;28;20520;-71
2022/09/17 13:39:33;;;;;;;12.32;8.77;;;13.10;99.90;;;;;;5094584;28;20074;-72
2022/09/17 13:42:21;;;;;;;11.50;9.95;;;13.20;99.90;;;;;;5093030;28;20027;-71
2022/09/17 13:45:01;;;;;;;16.67;12.07;;;13.30;99.90;;;;;;5091945;28;20032;-71
2022/09/17 13:47:30;;;;;;;8.75;7.45;;;13.30;99.90;;;;;;5105816;28;20145;-71
2022/09/17 13:50:04;;;;;;;7.50;5.30;;;13.20;99.90;;;;;;5071061;28;20404;-71
2022/09/17 13:52:46;;;;;;;7.85;6.28;;;13.10;99.90;;;;;;5113551;28;20028;-71
2022/09/17 13:55:35;;;;;;;5.78;5.18;;;13.20;99.90;;;;;;5093469;28;20024;-71
2022/09/17 13:58:06;;;;;;;6.78;5.68;;;13.20;99.90;;;;;;5093290;28;20092;-71
2022/09/17 14:00:57;;;;;;;8.52;6.50;;;13.20;99.90;;;;;;5094461;28;20084;-71
2022/09/17 14:03:36;;;;;;;9.30;6.55;;;13.30;99.90;;;;;;5112026;28;20047;-71
2022/09/17 14:06:04;;;;;;;7.32;4.85;;;13.30;99.90;;;;;;5095545;28;20091;-72
2022/09/17 14:08:57;;;;;;;5.55;5.00;;;13.30;99.90;;;;;;5111065;28;20108;-71
2022/09/17 14:11:26;;;;;;;8.18;6.82;;;13.30;99.90;;;;;;5094161;28;20039;-72
2022/09/17 14:14:03;;;;;;;40.53;18.15;;;13.40;99.90;;;;;;5112072;28;20023;-71
2022/09/17 14:16:35;;;;;;;22.48;13.25;;;13.30;99.90;;;;;;5112143;28;20036;-71
2022/09/17 14:19:31;;;;;;;10.77;7.65;;;13.30;99.90;;;;;;5113005;28;20024;-71
2022/09/17 14:22:11;;;;;;;7.03;5.38;;;13.20;99.90;;;;;;5095546;28;20566;-71
2022/09/17 14:24:43;;;;;;;58.97;26.90;;;13.20;99.90;;;;;;5095408;28;20252;-71
2022/09/17 14:27:13;;;;;;;48.28;27.83;;;13.10;99.90;;;;;;5094356;28;20062;-71
2022/09/17 14:30:16;;;;;;;17.55;11.95;;;13.00;99.90;;;;;;5095399;28;20048;-71
2022/09/17 14:32:59;;;;;;;12.85;9.75;;;12.90;99.90;;;;;;5095503;28;20036;-71
2022/09/17 14:35:35;;;;;;;16.50;12.07;;;13.10;99.90;;;;;;5093898;28;20393;-71
2022/09/17 14:38:26;;;;;;;11.52;8.82;;;13.20;99.90;;;;;;5094373;28;20569;-71
2022/09/17 14:41:03;;;;;;;19.23;13.60;;;13.20;99.90;;;;;;5093796;28;20016;-71
2022/09/17 14:43:51;;;;;;;48.03;25.77;;;13.30;99.90;;;;;;5095179;28;20047;-71
2022/09/17 14:46:26;;;;;;;24.70;16.13;;;13.20;99.90;;;;;;5095099;28;20612;-71
2022/09/17 14:48:52;;;;;;;14.35;11.45;;;13.30;99.90;;;;;;5084967;28;20017;-71
2022/09/17 14:51:17;;;;;;;17.50;10.13;;;13.20;99.90;;;;;;5074766;28;20029;-72
2022/09/17 14:54:04;;;;;;;16.92;10.02;;;13.20;99.90;;;;;;5083451;28;20600;-71
2022/09/17 14:56:35;;;;;;;8.30;6.40;;;13.20;99.90;;;;;;5100674;28;20490;-71
2022/09/17 14:59:01;;;;;;;13.95;12.32;;;13.20;99.90;;;;;;5094901;28;20382;-71
2022/09/17 15:01:30;;;;;;;10.13;8.55;;;13.20;99.90;;;;;;5094685;28;20028;-71
2022/09/17 15:04:13;;;;;;;16.40;11.68;;;13.20;99.90;;;;;;5094621;28;20031;-71
2022/09/17 15:06:40;;;;;;;11.82;8.73;;;13.10;99.90;;;;;;5094714;28;20031;-71
2022/09/17 15:09:13;;;;;;;7.97;6.35;;;13.10;99.90;;;;;;5094602;28;20023;-71
2022/09/17 15:11:42;;;;;;;21.25;14.45;;;13.10;99.90;;;;;;5094508;28;20385;-71